America — WDE6770 — position and weather

sailwx.info

Track history (hours):
 
Tides and Currents Weather Stations Pressure Air Temp Water Temp Dewpoint Dewpoint Depression Visibility Wind Speed Wind Dir Waves Ship Positions

America

Owner: Foss Maritime Company, Seattle, WA. More information available from US FCC via Universal Licensing System and Coast Guard Vessel Documentation Center.

Last reported at 2017-Oct-18 01:30 UTC. Time now 2017-Oct-18 02:01 UTC.
Position N 37°55' W 122°25'.

Length 30 m; draft 5.2 m.

Type: Tug. MMSI: 367384610.

Date/timePositionNaut miles runAvg speedWind from/ knotsBaromVisibWave heightAir tempDewpointWater temp
2017-Oct-18 01:30N 37°55' W 122°25'0 0.0
2017-Oct-18 01:00N 37°55' W 122°25'0 0.0
2017-Oct-18 00:30N 37°55' W 122°25'0 0.0
2017-Oct-18 00:00N 37°55' W 122°25'0 0.0
2017-Oct-17 23:30N 37°55' W 122°25'0 0.0
2017-Oct-17 23:00N 37°55' W 122°25'0 0.0
2017-Oct-17 22:31N 37°55' W 122°25'0 0.0
2017-Oct-17 22:00N 37°55' W 122°25'2 3.8
2017-Oct-17 21:31N 37°54' W 122°26'4 8.5
2017-Oct-17 21:00N 37°50' W 122°28'2 5.0
2017-Oct-17 20:31N 37°49' W 122°31'4 8.1
2017-Oct-17 20:00N 37°51' W 122°26'4 8.0
2017-Oct-17 19:30N 37°55' W 122°25'1 1.9
2017-Oct-17 19:00N 37°55' W 122°25'0 0.2
2017-Oct-17 18:31N 37°55' W 122°25'0 0.1
2017-Oct-17 18:00N 37°55' W 122°25'0 0.9
2017-Oct-17 17:31N 37°55' W 122°25'1 1.1
2017-Oct-17 17:01N 37°55' W 122°25'0 0.2
2017-Oct-17 16:30N 37°55' W 122°25'0 0.3
2017-Oct-17 15:59N 37°55' W 122°25'0 0.0
2017-Oct-17 15:29N 37°55' W 122°25'0 0.0
2017-Oct-17 14:56N 37°55' W 122°25'0 0.0
2017-Oct-17 14:29N 37°55' W 122°25'0 0.0
2017-Oct-17 13:59N 37°55' W 122°25'0 0.0
2017-Oct-17 13:29N 37°55' W 122°25'0 0.0
2017-Oct-17 12:59N 37°55' W 122°25'0 0.0
2017-Oct-17 12:29N 37°55' W 122°25'0 0.0
2017-Oct-17 11:59N 37°55' W 122°25'0 0.0
2017-Oct-17 11:29N 37°55' W 122°25'0 0.0
2017-Oct-17 10:59N 37°55' W 122°25'0 0.0
2017-Oct-17 10:29N 37°55' W 122°25'0 0.0
2017-Oct-17 09:59N 37°55' W 122°25'0 0.0
2017-Oct-17 09:29N 37°55' W 122°25'0 0.0
2017-Oct-17 08:59N 37°55' W 122°25'0 0.0
2017-Oct-17 08:29N 37°55' W 122°25'0 0.0
2017-Oct-17 07:59N 37°55' W 122°25'0 0.0
2017-Oct-17 07:29N 37°55' W 122°25'0 0.0
2017-Oct-17 06:59N 37°55' W 122°25'0 0.0
2017-Oct-17 06:29N 37°55' W 122°25'0 0.0
2017-Oct-17 05:59N 37°55' W 122°25'0 0.0
2017-Oct-17 05:29N 37°55' W 122°25'0 0.0
2017-Oct-17 04:59N 37°55' W 122°25'0 0.0
2017-Oct-17 04:29N 37°55' W 122°25'0 0.0
2017-Oct-17 03:59N 37°55' W 122°25'0 0.0
2017-Oct-17 03:29N 37°55' W 122°25'0 0.0
2017-Oct-17 02:59N 37°55' W 122°25'0 0.0
2017-Oct-17 02:29N 37°55' W 122°25'0 0.0
2017-Oct-17 01:59N 37°55' W 122°25'0 0.0
2017-Oct-17 01:29N 37°55' W 122°25'0 0.0
2017-Oct-17 00:59N 37°55' W 122°25'0 0.0
2017-Oct-17 00:29N 37°55' W 122°25'0 0.0
2017-Oct-16 23:59N 37°55' W 122°25'0 0.0
2017-Oct-16 23:29N 37°55' W 122°25'0 0.3
2017-Oct-16 23:00N 37°55' W 122°24'2 3.4
2017-Oct-16 22:27N 37°54' W 122°22'0 0.0
2017-Oct-16 22:00N 37°54' W 122°22'0 0.0
2017-Oct-16 21:30N 37°54' W 122°22'0 0.0
2017-Oct-16 21:00N 37°54' W 122°22'1 1.6
2017-Oct-16 20:30N 37°55' W 122°22'0 0.2
2017-Oct-16 20:00N 37°55' W 122°22'1 1.9
2017-Oct-16 19:30N 37°54' W 122°23'2 4.3
2017-Oct-16 19:00N 37°54' W 122°25'2 4.8
2017-Oct-16 18:30N 37°52' W 122°25'3 5.5
2017-Oct-16 18:00N 37°50' W 122°27'3 6.8
2017-Oct-16 17:30N 37°48' W 122°30'1 1.4
2017-Oct-16 17:01N 37°48' W 122°30'4 7.6
2017-Oct-16 16:30N 37°49' W 122°25'1 2.3
2017-Oct-16 16:00N 37°48' W 122°24'0 0.1
2017-Oct-16 15:30N 37°48' W 122°24'3 7.0
2017-Oct-16 15:01N 37°48' W 122°19'1 1.4
2017-Oct-16 14:30N 37°48' W 122°20'1 1.3
2017-Oct-16 13:30N 37°48' W 122°19'0 0.1
2017-Oct-16 13:00N 37°48' W 122°19'1 2.7
2017-Oct-16 12:30N 37°48' W 122°20'1 2.8
2017-Oct-16 12:00N 37°48' W 122°22'1 2.6
2017-Oct-16 11:28N 37°48' W 122°21'0 0.0
2017-Oct-16 10:58N 37°48' W 122°21'0 0.0
2017-Oct-16 10:28N 37°48' W 122°21'0 0.0
2017-Oct-16 09:58N 37°48' W 122°21'0 0.0
2017-Oct-16 09:28N 37°48' W 122°21'0 0.0
2017-Oct-16 08:58N 37°48' W 122°21'0 0.0
2017-Oct-16 08:28N 37°48' W 122°21'1 1.6
2017-Oct-16 08:00N 37°49' W 122°21'4 8.3
2017-Oct-16 07:31N 37°52' W 122°24'3 5.8
2017-Oct-16 07:00N 37°55' W 122°25'1 1.3
2017-Oct-16 06:30N 37°54' W 122°25'1 2.2
2017-Oct-16 06:00N 37°56' W 122°25'0 0.7
2017-Oct-16 05:30N 37°55' W 122°25'2 4.4
2017-Oct-16 05:01N 37°54' W 122°22'0 0.0
2017-Oct-16 04:30N 37°54' W 122°22'0 0.0
2017-Oct-16 04:00N 37°54' W 122°22'0 0.0
2017-Oct-16 03:31N 37°54' W 122°22'0 0.0
2017-Oct-16 03:00N 37°54' W 122°22'0 0.0
2017-Oct-16 02:30N 37°54' W 122°22'0 0.0
2017-Oct-16 02:00N 37°54' W 122°22'0 0.0
2017-Oct-16 01:30N 37°54' W 122°22'0 0.0
2017-Oct-16 01:00N 37°54' W 122°22'2 4.4
2017-Oct-16 00:30N 37°54' W 122°25'4 8.9
2017-Oct-16 00:00N 37°50' W 122°22'3 5.3
2017-Oct-15 23:30N 37°48' W 122°19'1 1.3
2017-Oct-15 23:00N 37°48' W 122°19'1 1.1
2017-Oct-15 22:31N 37°48' W 122°18'3 6.5
2017-Oct-15 22:01N 37°48' W 122°22'3 5.4
2017-Oct-15 21:30N 37°50' W 122°24'4 7.8
2017-Oct-15 21:00N 37°54' W 122°24'1 2.4
2017-Oct-15 20:29N 37°54' W 122°22'0 0.0
2017-Oct-15 19:44N 37°54' W 122°22'0 0.0
2017-Oct-15 19:26N 37°54' W 122°22'0 0.0
2017-Oct-15 18:14N 37°54' W 122°22'0 0.0
2017-Oct-15 17:59N 37°54' W 122°22'0 0.0
2017-Oct-15 17:26N 37°54' W 122°22'0 0.0
2017-Oct-15 16:59N 37°54' W 122°22'0 0.0
2017-Oct-15 16:26N 37°54' W 122°22'0 0.0
2017-Oct-15 15:59N 37°54' W 122°22'0 0.0
2017-Oct-15 15:26N 37°54' W 122°22'0 0.0
2017-Oct-15 14:50N 37°54' W 122°22'0 0.0
2017-Oct-15 13:59N 37°54' W 122°22'0 0.0
2017-Oct-15 13:29N 37°54' W 122°22'0 0.0
2017-Oct-15 12:53N 37°54' W 122°22'0 0.0
2017-Oct-15 12:23N 37°54' W 122°22'0 0.0
2017-Oct-15 11:59N 37°54' W 122°22'0 0.0
2017-Oct-15 11:29N 37°54' W 122°22'0 0.0
2017-Oct-15 10:59N 37°54' W 122°22'0 0.0
2017-Oct-15 10:26N 37°54' W 122°22'0 0.0
2017-Oct-15 09:59N 37°54' W 122°22'0 0.0
2017-Oct-15 09:29N 37°54' W 122°22'0 0.0
2017-Oct-15 08:59N 37°54' W 122°22'0 0.0
2017-Oct-15 08:29N 37°54' W 122°22'0 0.0
2017-Oct-15 07:59N 37°54' W 122°22'0 0.0
2017-Oct-15 07:29N 37°54' W 122°22'0 0.0
2017-Oct-15 06:56N 37°54' W 122°22'1 2.7
2017-Oct-15 06:30N 37°54' W 122°24'2 3.1
2017-Oct-15 06:00N 37°56' W 122°25'0 0.2
2017-Oct-15 05:28N 37°55' W 122°25'2 3.6
2017-Oct-15 05:00N 37°54' W 122°25'2 4.4
2017-Oct-15 04:30N 37°52' W 122°25'4 7.2
2017-Oct-15 04:01N 37°49' W 122°28'3 5.3
2017-Oct-15 03:30N 37°52' W 122°27'4 8.7
2017-Oct-15 03:00N 37°56' W 122°25'2 4.6
2017-Oct-15 02:30N 37°54' W 122°22'0 0.1
2017-Oct-15 01:58N 37°54' W 122°22'0 0.0
2017-Oct-15 01:28N 37°54' W 122°22'0 0.0
2017-Oct-15 00:52N 37°54' W 122°22'0 0.0
2017-Oct-15 00:28N 37°54' W 122°22'0 0.0
2017-Oct-14 23:55N 37°54' W 122°22'0 0.0
2017-Oct-14 23:22N 37°54' W 122°22'0 0.0
2017-Oct-14 22:55N 37°54' W 122°22'0 0.0
2017-Oct-14 22:28N 37°54' W 122°22'0 0.0
2017-Oct-14 21:58N 37°54' W 122°22'0 0.0
2017-Oct-14 21:22N 37°54' W 122°22'0 0.0
2017-Oct-14 21:00N 37°54' W 122°22'1 1.8
2017-Oct-14 20:30N 37°55' W 122°22'1 1.3
2017-Oct-14 20:00N 37°55' W 122°22'1 1.1
2017-Oct-14 19:29N 37°54' W 122°22'0 0.0
2017-Oct-14 18:59N 37°54' W 122°22'0 0.0
2017-Oct-14 18:23N 37°54' W 122°22'0 0.0
2017-Oct-14 17:59N 37°54' W 122°22'0 0.0
2017-Oct-14 17:20N 37°54' W 122°22'0 0.0
2017-Oct-14 16:59N 37°54' W 122°22'0 0.0
2017-Oct-14 16:29N 37°54' W 122°22'0 0.0
2017-Oct-14 15:59N 37°54' W 122°22'0 0.0
2017-Oct-14 15:23N 37°54' W 122°22'0 0.0
2017-Oct-14 14:59N 37°54' W 122°22'0 0.8
2017-Oct-14 14:30N 37°54' W 122°23'3 5.7
2017-Oct-14 14:00N 37°51' W 122°24'4 8.6
2017-Oct-14 13:30N 37°48' W 122°20'1 2.5
2017-Oct-14 13:00N 37°48' W 122°19'1 1.9
2017-Oct-14 12:30N 37°48' W 122°18'2 3.2
2017-Oct-14 12:00N 37°48' W 122°20'1 1.5
2017-Oct-14 11:31N 37°48' W 122°20'1 1.2
2017-Oct-14 10:59N 37°49' W 122°20'0 0.0
2017-Oct-14 10:29N 37°49' W 122°20'0 0.0
2017-Oct-14 09:59N 37°49' W 122°20'0 0.0
2017-Oct-14 09:29N 37°49' W 122°20'0 0.0
2017-Oct-14 08:59N 37°49' W 122°20'0 0.0
2017-Oct-14 08:29N 37°49' W 122°20'0 0.0
2017-Oct-14 07:59N 37°49' W 122°20'0 0.0
2017-Oct-14 07:29N 37°49' W 122°20'0 0.0
2017-Oct-14 06:59N 37°49' W 122°20'0 0.0
2017-Oct-14 06:29N 37°49' W 122°20'0 0.0
2017-Oct-14 05:59N 37°49' W 122°20'0 0.0
2017-Oct-14 05:29N 37°49' W 122°20'0 0.0
2017-Oct-14 04:59N 37°49' W 122°20'0 0.0
2017-Oct-14 04:31N 37°49' W 122°20'0 0.0
2017-Oct-14 04:00N 37°49' W 122°20'0 0.0
2017-Oct-14 03:30N 37°49' W 122°20'0 0.0
2017-Oct-14 03:00N 37°49' W 122°20'0 0.0
2017-Oct-14 02:30N 37°49' W 122°20'0 0.0
2017-Oct-14 02:00N 37°49' W 122°20'0 0.0
2017-Oct-14 01:30N 37°49' W 122°20'0 0.0
2017-Oct-14 01:01N 37°49' W 122°20'0 0.0
2017-Oct-14 00:30N 37°49' W 122°20'0 0.0
2017-Oct-14 00:00N 37°49' W 122°20'0 0.2
2017-Oct-13 23:30N 37°49' W 122°20'0 0.8
2017-Oct-13 23:00N 37°49' W 122°20'2 4.0
2017-Oct-13 22:30N 37°48' W 122°22'3 5.5
2017-Oct-13 22:00N 37°51' W 122°24'4 7.5
2017-Oct-13 21:30N 37°54' W 122°24'1 2.6
2017-Oct-13 20:58N 37°54' W 122°22'0 0.0
2017-Oct-13 20:28N 37°54' W 122°22'0 0.0
2017-Oct-13 18:44N 37°54' W 122°22'0 0.0
2017-Oct-13 18:29N 37°54' W 122°22'0 0.0
2017-Oct-13 17:59N 37°54' W 122°22'0 0.0
2017-Oct-13 17:29N 37°54' W 122°22'0 0.0
2017-Oct-13 16:59N 37°54' W 122°22'0 0.0
2017-Oct-13 16:29N 37°54' W 122°22'0 0.0
2017-Oct-13 15:59N 37°54' W 122°22'0 0.0
2017-Oct-13 15:29N 37°54' W 122°22'0 0.0
2017-Oct-13 15:00N 37°54' W 122°22'3 6.8
2017-Oct-13 14:30N 37°56' W 122°26'4 8.2
2017-Oct-13 14:00N 38°00' W 122°24'4 8.6
2017-Oct-13 13:30N 38°03' W 122°20'5 9.3
2017-Oct-13 13:00N 38°04' W 122°14'5 9.4
2017-Oct-13 12:30N 38°02' W 122°08'2 3.6
2017-Oct-13 11:58N 38°03' W 122°06'1 2.1
2017-Oct-13 11:26N 38°02' W 122°07'3 6.0
2017-Oct-13 10:59N 38°03' W 122°11'3 6.9
2017-Oct-13 10:30N 38°04' W 122°15'4 7.4
2017-Oct-13 09:59N 38°03' W 122°20'4 7.7
2017-Oct-13 09:30N 38°01' W 122°24'3 7.0
2017-Oct-13 09:01N 37°58' W 122°26'3 6.2
2017-Oct-13 08:30N 37°55' W 122°25'0 0.2
2017-Oct-13 08:00N 37°55' W 122°25'0 0.3
2017-Oct-13 07:29N 37°55' W 122°24'0 0.1
2017-Oct-13 06:59N 37°55' W 122°25'0 0.0
2017-Oct-13 06:29N 37°55' W 122°25'0 0.1
2017-Oct-13 05:59N 37°55' W 122°24'0 0.1
2017-Oct-13 05:29N 37°55' W 122°25'0 0.0
2017-Oct-13 04:59N 37°55' W 122°25'0 0.0
2017-Oct-13 04:29N 37°55' W 122°25'0 0.0
2017-Oct-13 03:59N 37°55' W 122°25'0 0.0
2017-Oct-13 03:29N 37°55' W 122°25'0 0.0
2017-Oct-13 02:59N 37°55' W 122°25'0 0.0
2017-Oct-13 02:29N 37°55' W 122°25'0 0.0
2017-Oct-13 01:59N 37°55' W 122°25'0 0.0
2017-Oct-13 01:23N 37°55' W 122°25'0 0.0
2017-Oct-13 00:59N 37°55' W 122°25'0 0.0
2017-Oct-13 00:29N 37°55' W 122°25'0 0.0
2017-Oct-12 23:59N 37°55' W 122°25'0 0.0
2017-Oct-12 23:29N 37°55' W 122°25'0 0.0
2017-Oct-12 22:59N 37°55' W 122°25'0 0.0
2017-Oct-12 22:29N 37°55' W 122°25'0 0.0
2017-Oct-12 21:59N 37°55' W 122°25'0 0.0
2017-Oct-12 21:29N 37°55' W 122°25'0 0.0
2017-Oct-12 20:59N 37°55' W 122°25'0 0.0
2017-Oct-12 20:29N 37°55' W 122°25'0 0.0
2017-Oct-12 19:59N 37°55' W 122°25'0 0.0
2017-Oct-12 19:29N 37°55' W 122°25'0 0.1
2017-Oct-12 18:59N 37°55' W 122°24'0 0.1
2017-Oct-12 18:26N 37°55' W 122°25'0 0.0
2017-Oct-12 17:59N 37°55' W 122°25'0 0.0
2017-Oct-12 17:29N 37°55' W 122°25'0 0.0
2017-Oct-12 16:59N 37°55' W 122°25'0 0.0
2017-Oct-12 16:29N 37°55' W 122°25'0 0.0
2017-Oct-12 15:59N 37°55' W 122°25'0 0.0
2017-Oct-12 15:29N 37°55' W 122°25'0 0.0
2017-Oct-12 14:59N 37°55' W 122°25'0 0.0
2017-Oct-12 14:29N 37°55' W 122°25'0 0.8
2017-Oct-12 14:01N 37°56' W 122°25'0 0.3
2017-Oct-12 13:30N 37°55' W 122°25'3 5.3
2017-Oct-12 13:01N 37°53' W 122°25'2 4.9
2017-Oct-12 12:31N 37°55' W 122°25'0 0.0
2017-Oct-12 12:01N 37°55' W 122°25'0 0.0
2017-Oct-12 11:31N 37°55' W 122°25'0 0.0
2017-Oct-12 11:01N 37°55' W 122°25'0 0.0
2017-Oct-12 10:31N 37°55' W 122°25'1 2.1
2017-Oct-12 10:01N 37°55' W 122°25'1 2.2
2017-Oct-12 09:30N 37°56' W 122°25'0 0.0
2017-Oct-12 09:01N 37°56' W 122°25'0 0.1
2017-Oct-12 08:30N 37°56' W 122°25'0 0.8
2017-Oct-12 07:58N 37°55' W 122°25'0 0.0
2017-Oct-12 07:28N 37°55' W 122°25'0 0.0
2017-Oct-12 06:58N 37°55' W 122°25'0 0.1
2017-Oct-12 06:28N 37°55' W 122°24'0 0.1
2017-Oct-12 05:58N 37°55' W 122°25'0 0.0
2017-Oct-12 05:28N 37°55' W 122°25'0 0.0
2017-Oct-12 04:58N 37°55' W 122°25'0 0.0
2017-Oct-12 04:28N 37°55' W 122°25'0 0.1
2017-Oct-12 03:58N 37°55' W 122°24'0 0.0
2017-Oct-12 03:28N 37°55' W 122°24'0 0.1
2017-Oct-12 02:58N 37°55' W 122°25'0 0.0
2017-Oct-12 02:28N 37°55' W 122°25'0 0.0
2017-Oct-12 02:00N 37°55' W 122°25'0 0.0
2017-Oct-12 01:30N 37°55' W 122°25'0 0.0
2017-Oct-12 01:00N 37°55' W 122°25'0 0.0
2017-Oct-12 00:30N 37°55' W 122°25'4 7.5
2017-Oct-12 00:00N 37°59' W 122°25'4 7.7
2017-Oct-11 23:30N 37°55' W 122°24'0 0.2
2017-Oct-11 23:00N 37°55' W 122°25'0 0.0
2017-Oct-11 22:30N 37°55' W 122°25'0 0.0
2017-Oct-11 21:57N 37°55' W 122°25'0 0.0
2017-Oct-11 21:30N 37°55' W 122°25'0 0.0
2017-Oct-11 21:00N 37°55' W 122°25'0 0.0
2017-Oct-11 20:30N 37°55' W 122°25'0 0.0
2017-Oct-11 20:00N 37°55' W 122°25'0 0.0
2017-Oct-11 19:30N 37°55' W 122°25'0 0.0
2017-Oct-11 19:00N 37°55' W 122°25'0 0.0
2017-Oct-11 18:30N 37°55' W 122°25'0 0.4
2017-Oct-11 18:01N 37°55' W 122°25'0 0.4
2017-Oct-11 17:30N 37°55' W 122°25'0 0.2
2017-Oct-11 16:59N 37°55' W 122°25'0 0.0
2017-Oct-11 00:00N 37°55' W 122°25'0 0.0
2017-Oct-10 23:30N 37°55' W 122°25'0 1.0
2017-Oct-10 23:00N 37°56' W 122°25'0 0.5
2017-Oct-10 22:30N 37°55' W 122°25'3 6.4
2017-Oct-10 22:00N 37°52' W 122°25'4 7.3
2017-Oct-10 21:30N 37°50' W 122°28'3 5.3
2017-Oct-10 21:01N 37°48' W 122°30'2 3.8
2017-Oct-10 20:30N 37°49' W 122°29'4 8.1
2017-Oct-10 20:00N 37°50' W 122°24'2 4.2
2017-Oct-10 19:30N 37°49' W 122°22'0 0.0
2017-Oct-10 19:00N 37°49' W 122°22'0 0.0
2017-Oct-10 18:30N 37°49' W 122°22'0 0.0
2017-Oct-10 18:00N 37°49' W 122°22'2 4.4
2017-Oct-10 17:30N 37°47' W 122°23'0 0.7
2017-Oct-10 17:00N 37°47' W 122°23'0 0.3
2017-Oct-10 16:30N 37°47' W 122°23'0 0.0
2017-Oct-10 16:00N 37°47' W 122°23'0 0.0
2017-Oct-10 15:30N 37°47' W 122°23'0 0.0
2017-Oct-10 15:00N 37°47' W 122°23'7 7.0
2017-Oct-10 14:00N 37°54' W 122°25'3 5.5
2017-Oct-10 13:30N 37°55' W 122°22'0 0.1
2017-Oct-10 13:00N 37°55' W 122°22'1 2.5
2017-Oct-10 12:30N 37°54' W 122°23'2 3.7
2017-Oct-10 12:00N 37°55' W 122°25'1 1.7
2017-Oct-10 11:30N 37°54' W 122°26'2 2.9
2017-Oct-10 10:59N 37°55' W 122°25'0 0.0
2017-Oct-10 10:29N 37°55' W 122°25'0 0.0
2017-Oct-10 09:59N 37°55' W 122°25'0 0.0
2017-Oct-10 09:29N 37°55' W 122°25'0 0.0
2017-Oct-10 08:59N 37°55' W 122°25'0 0.0
2017-Oct-10 08:29N 37°55' W 122°25'0 0.0
2017-Oct-10 07:59N 37°55' W 122°25'0 0.0
2017-Oct-10 07:29N 37°55' W 122°25'0 0.0
2017-Oct-10 06:59N 37°55' W 122°25'0 0.0
2017-Oct-10 06:29N 37°55' W 122°25'0 0.0
2017-Oct-10 05:59N 37°55' W 122°25'0 0.0
2017-Oct-10 05:29N 37°55' W 122°25'0 0.0
2017-Oct-10 04:59N 37°55' W 122°25'0 0.0
2017-Oct-10 04:29N 37°55' W 122°25'0 0.0
2017-Oct-10 03:59N 37°55' W 122°25'0 0.0
2017-Oct-10 03:29N 37°55' W 122°25'0 0.0
2017-Oct-10 02:59N 37°55' W 122°25'0 0.0
2017-Oct-10 02:26N 37°55' W 122°25'0 0.0
2017-Oct-10 01:59N 37°55' W 122°25'0 0.0
2017-Oct-10 01:29N 37°55' W 122°25'0 0.0
2017-Oct-10 00:56N 37°55' W 122°25'0 0.0
2017-Oct-10 00:29N 37°55' W 122°25'0 0.0
2017-Oct-09 23:59N 37°55' W 122°25'0 0.4
2017-Oct-09 23:30N 37°55' W 122°25'2 4.4
2017-Oct-09 23:01N 37°55' W 122°22'0 0.0
2017-Oct-09 22:31N 37°55' W 122°22'0 0.0
2017-Oct-09 22:01N 37°55' W 122°22'0 0.0
2017-Oct-09 21:31N 37°55' W 122°22'0 0.0
2017-Oct-09 21:01N 37°55' W 122°22'0 0.0
2017-Oct-09 20:30N 37°55' W 122°22'0 0.0
2017-Oct-09 20:00N 37°55' W 122°22'0 0.0
2017-Oct-09 19:31N 37°55' W 122°22'1 1.0
2017-Oct-09 19:00N 37°54' W 122°22'0 0.9
2017-Oct-09 18:30N 37°54' W 122°22'0 0.0
2017-Oct-09 18:00N 37°54' W 122°22'1 1.7
2017-Oct-09 17:30N 37°54' W 122°23'2 3.3
2017-Oct-09 17:00N 37°56' W 122°25'2 4.6
2017-Oct-09 16:30N 37°54' W 122°22'1 1.9
2017-Oct-09 16:00N 37°55' W 122°22'0 0.8
2017-Oct-09 15:30N 37°55' W 122°22'1 1.3
2017-Oct-09 14:59N 37°54' W 122°22'0 0.0
2017-Oct-09 14:29N 37°54' W 122°22'0 0.0
2017-Oct-09 13:59N 37°54' W 122°22'0 0.0
2017-Oct-09 13:29N 37°54' W 122°22'0 0.0
2017-Oct-09 12:56N 37°54' W 122°22'0 0.0
2017-Oct-09 12:29N 37°54' W 122°22'0 0.0
2017-Oct-09 11:59N 37°54' W 122°22'2 4.3
2017-Oct-09 11:31N 37°54' W 122°25'5 9.8
2017-Oct-09 11:00N 37°50' W 122°22'4 7.1
2017-Oct-09 10:31N 37°48' W 122°19'0 0.0
2017-Oct-09 10:00N 37°48' W 122°19'0 0.1
2017-Oct-09 09:30N 37°48' W 122°19'3 6.7
2017-Oct-09 09:00N 37°50' W 122°22'5 9.2
2017-Oct-09 08:30N 37°54' W 122°25'1 2.6
2017-Oct-09 07:58N 37°55' W 122°25'0 0.0
2017-Oct-09 07:28N 37°55' W 122°25'0 0.0
2017-Oct-09 06:58N 37°55' W 122°25'0 0.0
2017-Oct-09 06:19N 37°55' W 122°25'0 0.0
2017-Oct-09 05:55N 37°55' W 122°25'0 0.0
2017-Oct-09 05:28N 37°55' W 122°25'0 0.0
2017-Oct-09 04:58N 37°55' W 122°25'0 0.0
2017-Oct-09 04:28N 37°55' W 122°25'0 0.0
2017-Oct-09 03:58N 37°55' W 122°25'0 0.0
2017-Oct-09 03:28N 37°55' W 122°25'1 3.0
2017-Oct-09 03:00N 37°54' W 122°25'611.2
2017-Oct-09 02:30N 37°49' W 122°23'3 6.4
2017-Oct-09 02:00N 37°48' W 122°19'0 0.8
2017-Oct-09 01:30N 37°48' W 122°18'1 1.8
2017-Oct-09 01:01N 37°48' W 122°17'2 3.2
2017-Oct-09 00:30N 37°48' W 122°19'2 3.6
2017-Oct-09 00:00N 37°47' W 122°21'0 0.6
2017-Oct-08 23:30N 37°47' W 122°21'0 0.5
2017-Oct-08 23:00N 37°47' W 122°22'3 6.5
2017-Oct-08 22:30N 37°50' W 122°24'5 9.9
2017-Oct-08 22:00N 37°55' W 122°25'5 9.1
2017-Oct-08 21:30N 37°59' W 122°25'5 8.9
2017-Oct-08 20:59N 38°02' W 122°21'4 6.1
2017-Oct-08 20:20N 38°03' W 122°16'0 0.0
2017-Oct-08 19:54N 38°03' W 122°16'0 0.9
2017-Oct-08 19:29N 38°04' W 122°16'4 7.7
2017-Oct-08 19:00N 38°03' W 122°21'611.5
2017-Oct-08 18:30N 37°59' W 122°26'510.6
2017-Oct-08 18:00N 37°53' W 122°26'3 6.3
2017-Oct-08 17:30N 37°50' W 122°27'4 7.2
2017-Oct-08 17:00N 37°48' W 122°30'0 0.4
2017-Oct-08 16:30N 37°48' W 122°30'1 1.3
2017-Oct-08 16:00N 37°48' W 122°30'4 7.2
2017-Oct-08 15:30N 37°51' W 122°27'5 9.1
2017-Oct-08 15:00N 37°55' W 122°25'0 0.0
2017-Oct-08 14:30N 37°55' W 122°25'0 0.0
2017-Oct-08 14:00N 37°55' W 122°25'0 0.3
2017-Oct-08 13:30N 37°55' W 122°25'0 0.0
2017-Oct-08 13:00N 37°55' W 122°25'1 1.1
2017-Oct-08 12:30N 37°55' W 122°25'2 4.5
2017-Oct-08 12:00N 37°53' W 122°25'2 4.5
2017-Oct-08 11:30N 37°55' W 122°25'0 0.4
2017-Oct-08 10:59N 37°55' W 122°25'0 0.0
2017-Oct-08 10:29N 37°55' W 122°25'0 0.0
2017-Oct-08 09:56N 37°55' W 122°25'0 0.8
2017-Oct-08 09:30N 37°56' W 122°25'0 0.0
2017-Oct-08 09:00N 37°56' W 122°25'0 0.5
2017-Oct-08 08:30N 37°55' W 122°25'2 4.2
2017-Oct-08 08:01N 37°53' W 122°25'3 5.9
2017-Oct-08 07:30N 37°51' W 122°26'4 7.6
2017-Oct-08 07:01N 37°48' W 122°30'0 0.4
2017-Oct-08 06:30N 37°48' W 122°30'2 3.1
2017-Oct-08 06:00N 37°49' W 122°29'4 7.4
2017-Oct-08 05:30N 37°53' W 122°26'4 7.2
2017-Oct-08 05:00N 37°54' W 122°22'0 0.0
2017-Oct-08 04:30N 37°54' W 122°22'0 0.0
2017-Oct-08 04:00N 37°54' W 122°22'0 0.0
2017-Oct-08 03:30N 37°54' W 122°22'0 0.0
2017-Oct-08 03:00N 37°54' W 122°22'0 0.0
2017-Oct-08 02:30N 37°54' W 122°22'0 0.0
2017-Oct-08 02:00N 37°54' W 122°22'0 0.0
2017-Oct-08 01:30N 37°54' W 122°22'  
Track history (hours):
 
Tides and Currents Weather Stations Pressure Air Temp Water Temp Dewpoint Dewpoint Depression Visibility Wind Speed Wind Dir Waves Ship Positions

America

Owner: Foss Maritime Company, Seattle, WA. More information available from US FCC via Universal Licensing System and Coast Guard Vessel Documentation Center.

Last reported at 2017-Oct-18 01:30 UTC. Time now 2017-Oct-18 02:01 UTC.
Position N 37°55' W 122°25'.

Length 30 m; draft 5.2 m.

Type: Tug. MMSI: 367384610.

Date/timePositionNaut miles runAvg speedWind from/ knotsBaromVisibWave heightAir tempDewpointWater temp
2017-Oct-18 01:30N 37°55' W 122°25'0 0.0
2017-Oct-18 01:00N 37°55' W 122°25'0 0.0
2017-Oct-18 00:30N 37°55' W 122°25'0 0.0
2017-Oct-18 00:00N 37°55' W 122°25'0 0.0
2017-Oct-17 23:30N 37°55' W 122°25'0 0.0
2017-Oct-17 23:00N 37°55' W 122°25'0 0.0
2017-Oct-17 22:31N 37°55' W 122°25'0 0.0
2017-Oct-17 22:00N 37°55' W 122°25'2 3.8
2017-Oct-17 21:31N 37°54' W 122°26'4 8.5
2017-Oct-17 21:00N 37°50' W 122°28'2 5.0
2017-Oct-17 20:31N 37°49' W 122°31'4 8.1
2017-Oct-17 20:00N 37°51' W 122°26'4 8.0
2017-Oct-17 19:30N 37°55' W 122°25'1 1.9
2017-Oct-17 19:00N 37°55' W 122°25'0 0.2
2017-Oct-17 18:31N 37°55' W 122°25'0 0.1
2017-Oct-17 18:00N 37°55' W 122°25'0 0.9
2017-Oct-17 17:31N 37°55' W 122°25'1 1.1
2017-Oct-17 17:01N 37°55' W 122°25'0 0.2
2017-Oct-17 16:30N 37°55' W 122°25'0 0.3
2017-Oct-17 15:59N 37°55' W 122°25'0 0.0
2017-Oct-17 15:29N 37°55' W 122°25'0 0.0
2017-Oct-17 14:56N 37°55' W 122°25'0 0.0
2017-Oct-17 14:29N 37°55' W 122°25'0 0.0
2017-Oct-17 13:59N 37°55' W 122°25'0 0.0
2017-Oct-17 13:29N 37°55' W 122°25'0 0.0
2017-Oct-17 12:59N 37°55' W 122°25'0 0.0
2017-Oct-17 12:29N 37°55' W 122°25'0 0.0
2017-Oct-17 11:59N 37°55' W 122°25'0 0.0
2017-Oct-17 11:29N 37°55' W 122°25'0 0.0
2017-Oct-17 10:59N 37°55' W 122°25'0 0.0
2017-Oct-17 10:29N 37°55' W 122°25'0 0.0
2017-Oct-17 09:59N 37°55' W 122°25'0 0.0
2017-Oct-17 09:29N 37°55' W 122°25'0 0.0
2017-Oct-17 08:59N 37°55' W 122°25'0 0.0
2017-Oct-17 08:29N 37°55' W 122°25'0 0.0
2017-Oct-17 07:59N 37°55' W 122°25'0 0.0
2017-Oct-17 07:29N 37°55' W 122°25'0 0.0
2017-Oct-17 06:59N 37°55' W 122°25'0 0.0
2017-Oct-17 06:29N 37°55' W 122°25'0 0.0
2017-Oct-17 05:59N 37°55' W 122°25'0 0.0
2017-Oct-17 05:29N 37°55' W 122°25'0 0.0
2017-Oct-17 04:59N 37°55' W 122°25'0 0.0
2017-Oct-17 04:29N 37°55' W 122°25'0 0.0
2017-Oct-17 03:59N 37°55' W 122°25'0 0.0
2017-Oct-17 03:29N 37°55' W 122°25'0 0.0
2017-Oct-17 02:59N 37°55' W 122°25'0 0.0
2017-Oct-17 02:29N 37°55' W 122°25'0 0.0
2017-Oct-17 01:59N 37°55' W 122°25'0 0.0
2017-Oct-17 01:29N 37°55' W 122°25'0 0.0
2017-Oct-17 00:59N 37°55' W 122°25'0 0.0
2017-Oct-17 00:29N 37°55' W 122°25'0 0.0
2017-Oct-16 23:59N 37°55' W 122°25'0 0.0
2017-Oct-16 23:29N 37°55' W 122°25'0 0.3
2017-Oct-16 23:00N 37°55' W 122°24'2 3.4
2017-Oct-16 22:27N 37°54' W 122°22'0 0.0
2017-Oct-16 22:00N 37°54' W 122°22'0 0.0
2017-Oct-16 21:30N 37°54' W 122°22'0 0.0
2017-Oct-16 21:00N 37°54' W 122°22'1 1.6
2017-Oct-16 20:30N 37°55' W 122°22'0 0.2
2017-Oct-16 20:00N 37°55' W 122°22'1 1.9
2017-Oct-16 19:30N 37°54' W 122°23'2 4.3
2017-Oct-16 19:00N 37°54' W 122°25'2 4.8
2017-Oct-16 18:30N 37°52' W 122°25'3 5.5
2017-Oct-16 18:00N 37°50' W 122°27'3 6.8
2017-Oct-16 17:30N 37°48' W 122°30'1 1.4
2017-Oct-16 17:01N 37°48' W 122°30'4 7.6
2017-Oct-16 16:30N 37°49' W 122°25'1 2.3
2017-Oct-16 16:00N 37°48' W 122°24'0 0.1
2017-Oct-16 15:30N 37°48' W 122°24'3 7.0
2017-Oct-16 15:01N 37°48' W 122°19'1 1.4
2017-Oct-16 14:30N 37°48' W 122°20'1 1.3
2017-Oct-16 13:30N 37°48' W 122°19'0 0.1
2017-Oct-16 13:00N 37°48' W 122°19'1 2.7
2017-Oct-16 12:30N 37°48' W 122°20'1 2.8
2017-Oct-16 12:00N 37°48' W 122°22'1 2.6
2017-Oct-16 11:28N 37°48' W 122°21'0 0.0
2017-Oct-16 10:58N 37°48' W 122°21'0 0.0
2017-Oct-16 10:28N 37°48' W 122°21'0 0.0
2017-Oct-16 09:58N 37°48' W 122°21'0 0.0
2017-Oct-16 09:28N 37°48' W 122°21'0 0.0
2017-Oct-16 08:58N 37°48' W 122°21'0 0.0
2017-Oct-16 08:28N 37°48' W 122°21'1 1.6
2017-Oct-16 08:00N 37°49' W 122°21'4 8.3
2017-Oct-16 07:31N 37°52' W 122°24'3 5.8
2017-Oct-16 07:00N 37°55' W 122°25'1 1.3
2017-Oct-16 06:30N 37°54' W 122°25'1 2.2
2017-Oct-16 06:00N 37°56' W 122°25'0 0.7
2017-Oct-16 05:30N 37°55' W 122°25'2 4.4
2017-Oct-16 05:01N 37°54' W 122°22'0 0.0
2017-Oct-16 04:30N 37°54' W 122°22'0 0.0
2017-Oct-16 04:00N 37°54' W 122°22'0 0.0
2017-Oct-16 03:31N 37°54' W 122°22'0 0.0
2017-Oct-16 03:00N 37°54' W 122°22'0 0.0
2017-Oct-16 02:30N 37°54' W 122°22'0 0.0
2017-Oct-16 02:00N 37°54' W 122°22'0 0.0
2017-Oct-16 01:30N 37°54' W 122°22'0 0.0
2017-Oct-16 01:00N 37°54' W 122°22'2 4.4
2017-Oct-16 00:30N 37°54' W 122°25'4 8.9
2017-Oct-16 00:00N 37°50' W 122°22'3 5.3
2017-Oct-15 23:30N 37°48' W 122°19'1 1.3
2017-Oct-15 23:00N 37°48' W 122°19'1 1.1
2017-Oct-15 22:31N 37°48' W 122°18'3 6.5
2017-Oct-15 22:01N 37°48' W 122°22'3 5.4
2017-Oct-15 21:30N 37°50' W 122°24'4 7.8
2017-Oct-15 21:00N 37°54' W 122°24'1 2.4
2017-Oct-15 20:29N 37°54' W 122°22'0 0.0
2017-Oct-15 19:44N 37°54' W 122°22'0 0.0
2017-Oct-15 19:26N 37°54' W 122°22'0 0.0
2017-Oct-15 18:14N 37°54' W 122°22'0 0.0
2017-Oct-15 17:59N 37°54' W 122°22'0 0.0
2017-Oct-15 17:26N 37°54' W 122°22'0 0.0
2017-Oct-15 16:59N 37°54' W 122°22'0 0.0
2017-Oct-15 16:26N 37°54' W 122°22'0 0.0
2017-Oct-15 15:59N 37°54' W 122°22'0 0.0
2017-Oct-15 15:26N 37°54' W 122°22'0 0.0
2017-Oct-15 14:50N 37°54' W 122°22'0 0.0
2017-Oct-15 13:59N 37°54' W 122°22'0 0.0
2017-Oct-15 13:29N 37°54' W 122°22'0 0.0
2017-Oct-15 12:53N 37°54' W 122°22'0 0.0
2017-Oct-15 12:23N 37°54' W 122°22'0 0.0
2017-Oct-15 11:59N 37°54' W 122°22'0 0.0
2017-Oct-15 11:29N 37°54' W 122°22'0 0.0
2017-Oct-15 10:59N 37°54' W 122°22'0 0.0
2017-Oct-15 10:26N 37°54' W 122°22'0 0.0
2017-Oct-15 09:59N 37°54' W 122°22'0 0.0
2017-Oct-15 09:29N 37°54' W 122°22'0 0.0
2017-Oct-15 08:59N 37°54' W 122°22'0 0.0
2017-Oct-15 08:29N 37°54' W 122°22'0 0.0
2017-Oct-15 07:59N 37°54' W 122°22'0 0.0
2017-Oct-15 07:29N 37°54' W 122°22'0 0.0
2017-Oct-15 06:56N 37°54' W 122°22'1 2.7
2017-Oct-15 06:30N 37°54' W 122°24'2 3.1
2017-Oct-15 06:00N 37°56' W 122°25'0 0.2
2017-Oct-15 05:28N 37°55' W 122°25'2 3.6
2017-Oct-15 05:00N 37°54' W 122°25'2 4.4
2017-Oct-15 04:30N 37°52' W 122°25'4 7.2
2017-Oct-15 04:01N 37°49' W 122°28'3 5.3
2017-Oct-15 03:30N 37°52' W 122°27'4 8.7
2017-Oct-15 03:00N 37°56' W 122°25'2 4.6
2017-Oct-15 02:30N 37°54' W 122°22'0 0.1
2017-Oct-15 01:58N 37°54' W 122°22'0 0.0
2017-Oct-15 01:28N 37°54' W 122°22'0 0.0
2017-Oct-15 00:52N 37°54' W 122°22'0 0.0
2017-Oct-15 00:28N 37°54' W 122°22'0 0.0
2017-Oct-14 23:55N 37°54' W 122°22'0 0.0
2017-Oct-14 23:22N 37°54' W 122°22'0 0.0
2017-Oct-14 22:55N 37°54' W 122°22'0 0.0
2017-Oct-14 22:28N 37°54' W 122°22'0 0.0
2017-Oct-14 21:58N 37°54' W 122°22'0 0.0
2017-Oct-14 21:22N 37°54' W 122°22'0 0.0
2017-Oct-14 21:00N 37°54' W 122°22'1 1.8
2017-Oct-14 20:30N 37°55' W 122°22'1 1.3
2017-Oct-14 20:00N 37°55' W 122°22'1 1.1
2017-Oct-14 19:29N 37°54' W 122°22'0 0.0
2017-Oct-14 18:59N 37°54' W 122°22'0 0.0
2017-Oct-14 18:23N 37°54' W 122°22'0 0.0
2017-Oct-14 17:59N 37°54' W 122°22'0 0.0
2017-Oct-14 17:20N 37°54' W 122°22'0 0.0
2017-Oct-14 16:59N 37°54' W 122°22'0 0.0
2017-Oct-14 16:29N 37°54' W 122°22'0 0.0
2017-Oct-14 15:59N 37°54' W 122°22'0 0.0
2017-Oct-14 15:23N 37°54' W 122°22'0 0.0
2017-Oct-14 14:59N 37°54' W 122°22'0 0.8
2017-Oct-14 14:30N 37°54' W 122°23'3 5.7
2017-Oct-14 14:00N 37°51' W 122°24'4 8.6
2017-Oct-14 13:30N 37°48' W 122°20'1 2.5
2017-Oct-14 13:00N 37°48' W 122°19'1 1.9
2017-Oct-14 12:30N 37°48' W 122°18'2 3.2
2017-Oct-14 12:00N 37°48' W 122°20'1 1.5
2017-Oct-14 11:31N 37°48' W 122°20'1 1.2
2017-Oct-14 10:59N 37°49' W 122°20'0 0.0
2017-Oct-14 10:29N 37°49' W 122°20'0 0.0
2017-Oct-14 09:59N 37°49' W 122°20'0 0.0
2017-Oct-14 09:29N 37°49' W 122°20'0 0.0
2017-Oct-14 08:59N 37°49' W 122°20'0 0.0
2017-Oct-14 08:29N 37°49' W 122°20'0 0.0
2017-Oct-14 07:59N 37°49' W 122°20'0 0.0
2017-Oct-14 07:29N 37°49' W 122°20'0 0.0
2017-Oct-14 06:59N 37°49' W 122°20'0 0.0
2017-Oct-14 06:29N 37°49' W 122°20'0 0.0
2017-Oct-14 05:59N 37°49' W 122°20'0 0.0
2017-Oct-14 05:29N 37°49' W 122°20'0 0.0
2017-Oct-14 04:59N 37°49' W 122°20'0 0.0
2017-Oct-14 04:31N 37°49' W 122°20'0 0.0
2017-Oct-14 04:00N 37°49' W 122°20'0 0.0
2017-Oct-14 03:30N 37°49' W 122°20'0 0.0
2017-Oct-14 03:00N 37°49' W 122°20'0 0.0
2017-Oct-14 02:30N 37°49' W 122°20'0 0.0
2017-Oct-14 02:00N 37°49' W 122°20'0 0.0
2017-Oct-14 01:30N 37°49' W 122°20'0 0.0
2017-Oct-14 01:01N 37°49' W 122°20'0 0.0
2017-Oct-14 00:30N 37°49' W 122°20'0 0.0
2017-Oct-14 00:00N 37°49' W 122°20'0 0.2
2017-Oct-13 23:30N 37°49' W 122°20'0 0.8
2017-Oct-13 23:00N 37°49' W 122°20'2 4.0
2017-Oct-13 22:30N 37°48' W 122°22'3 5.5
2017-Oct-13 22:00N 37°51' W 122°24'4 7.5
2017-Oct-13 21:30N 37°54' W 122°24'1 2.6
2017-Oct-13 20:58N 37°54' W 122°22'0 0.0
2017-Oct-13 20:28N 37°54' W 122°22'0 0.0
2017-Oct-13 18:44N 37°54' W 122°22'0 0.0
2017-Oct-13 18:29N 37°54' W 122°22'0 0.0
2017-Oct-13 17:59N 37°54' W 122°22'0 0.0
2017-Oct-13 17:29N 37°54' W 122°22'0 0.0
2017-Oct-13 16:59N 37°54' W 122°22'0 0.0
2017-Oct-13 16:29N 37°54' W 122°22'0 0.0
2017-Oct-13 15:59N 37°54' W 122°22'0 0.0
2017-Oct-13 15:29N 37°54' W 122°22'0 0.0
2017-Oct-13 15:00N 37°54' W 122°22'3 6.8
2017-Oct-13 14:30N 37°56' W 122°26'4 8.2
2017-Oct-13 14:00N 38°00' W 122°24'4 8.6
2017-Oct-13 13:30N 38°03' W 122°20'5 9.3
2017-Oct-13 13:00N 38°04' W 122°14'5 9.4
2017-Oct-13 12:30N 38°02' W 122°08'2 3.6
2017-Oct-13 11:58N 38°03' W 122°06'1 2.1
2017-Oct-13 11:26N 38°02' W 122°07'3 6.0
2017-Oct-13 10:59N 38°03' W 122°11'3 6.9
2017-Oct-13 10:30N 38°04' W 122°15'4 7.4
2017-Oct-13 09:59N 38°03' W 122°20'4 7.7
2017-Oct-13 09:30N 38°01' W 122°24'3 7.0
2017-Oct-13 09:01N 37°58' W 122°26'3 6.2
2017-Oct-13 08:30N 37°55' W 122°25'0 0.2
2017-Oct-13 08:00N 37°55' W 122°25'0 0.3
2017-Oct-13 07:29N 37°55' W 122°24'0 0.1
2017-Oct-13 06:59N 37°55' W 122°25'0 0.0
2017-Oct-13 06:29N 37°55' W 122°25'0 0.1
2017-Oct-13 05:59N 37°55' W 122°24'0 0.1
2017-Oct-13 05:29N 37°55' W 122°25'0 0.0
2017-Oct-13 04:59N 37°55' W 122°25'0 0.0
2017-Oct-13 04:29N 37°55' W 122°25'0 0.0
2017-Oct-13 03:59N 37°55' W 122°25'0 0.0
2017-Oct-13 03:29N 37°55' W 122°25'0 0.0
2017-Oct-13 02:59N 37°55' W 122°25'0 0.0
2017-Oct-13 02:29N 37°55' W 122°25'0 0.0
2017-Oct-13 01:59N 37°55' W 122°25'0 0.0
2017-Oct-13 01:23N 37°55' W 122°25'0 0.0
2017-Oct-13 00:59N 37°55' W 122°25'0 0.0
2017-Oct-13 00:29N 37°55' W 122°25'0 0.0
2017-Oct-12 23:59N 37°55' W 122°25'0 0.0
2017-Oct-12 23:29N 37°55' W 122°25'0 0.0
2017-Oct-12 22:59N 37°55' W 122°25'0 0.0
2017-Oct-12 22:29N 37°55' W 122°25'0 0.0
2017-Oct-12 21:59N 37°55' W 122°25'0 0.0
2017-Oct-12 21:29N 37°55' W 122°25'0 0.0
2017-Oct-12 20:59N 37°55' W 122°25'0 0.0
2017-Oct-12 20:29N 37°55' W 122°25'0 0.0
2017-Oct-12 19:59N 37°55' W 122°25'0 0.0
2017-Oct-12 19:29N 37°55' W 122°25'0 0.1
2017-Oct-12 18:59N 37°55' W 122°24'0 0.1
2017-Oct-12 18:26N 37°55' W 122°25'0 0.0
2017-Oct-12 17:59N 37°55' W 122°25'0 0.0
2017-Oct-12 17:29N 37°55' W 122°25'0 0.0
2017-Oct-12 16:59N 37°55' W 122°25'0 0.0
2017-Oct-12 16:29N 37°55' W 122°25'0 0.0
2017-Oct-12 15:59N 37°55' W 122°25'0 0.0
2017-Oct-12 15:29N 37°55' W 122°25'0 0.0
2017-Oct-12 14:59N 37°55' W 122°25'0 0.0
2017-Oct-12 14:29N 37°55' W 122°25'0 0.8
2017-Oct-12 14:01N 37°56' W 122°25'0 0.3
2017-Oct-12 13:30N 37°55' W 122°25'3 5.3
2017-Oct-12 13:01N 37°53' W 122°25'2 4.9
2017-Oct-12 12:31N 37°55' W 122°25'0 0.0
2017-Oct-12 12:01N 37°55' W 122°25'0 0.0
2017-Oct-12 11:31N 37°55' W 122°25'0 0.0
2017-Oct-12 11:01N 37°55' W 122°25'0 0.0
2017-Oct-12 10:31N 37°55' W 122°25'1 2.1
2017-Oct-12 10:01N 37°55' W 122°25'1 2.2
2017-Oct-12 09:30N 37°56' W 122°25'0 0.0
2017-Oct-12 09:01N 37°56' W 122°25'0 0.1
2017-Oct-12 08:30N 37°56' W 122°25'0 0.8
2017-Oct-12 07:58N 37°55' W 122°25'0 0.0
2017-Oct-12 07:28N 37°55' W 122°25'0 0.0
2017-Oct-12 06:58N 37°55' W 122°25'0 0.1
2017-Oct-12 06:28N 37°55' W 122°24'0 0.1
2017-Oct-12 05:58N 37°55' W 122°25'0 0.0
2017-Oct-12 05:28N 37°55' W 122°25'0 0.0
2017-Oct-12 04:58N 37°55' W 122°25'0 0.0
2017-Oct-12 04:28N 37°55' W 122°25'0 0.1
2017-Oct-12 03:58N 37°55' W 122°24'0 0.0
2017-Oct-12 03:28N 37°55' W 122°24'0 0.1
2017-Oct-12 02:58N 37°55' W 122°25'0 0.0
2017-Oct-12 02:28N 37°55' W 122°25'0 0.0
2017-Oct-12 02:00N 37°55' W 122°25'0 0.0
2017-Oct-12 01:30N 37°55' W 122°25'0 0.0
2017-Oct-12 01:00N 37°55' W 122°25'0 0.0
2017-Oct-12 00:30N 37°55' W 122°25'4 7.5
2017-Oct-12 00:00N 37°59' W 122°25'4 7.7
2017-Oct-11 23:30N 37°55' W 122°24'0 0.2
2017-Oct-11 23:00N 37°55' W 122°25'0 0.0
2017-Oct-11 22:30N 37°55' W 122°25'0 0.0
2017-Oct-11 21:57N 37°55' W 122°25'0 0.0
2017-Oct-11 21:30N 37°55' W 122°25'0 0.0
2017-Oct-11 21:00N 37°55' W 122°25'0 0.0
2017-Oct-11 20:30N 37°55' W 122°25'0 0.0
2017-Oct-11 20:00N 37°55' W 122°25'0 0.0
2017-Oct-11 19:30N 37°55' W 122°25'0 0.0
2017-Oct-11 19:00N 37°55' W 122°25'0 0.0
2017-Oct-11 18:30N 37°55' W 122°25'0 0.4
2017-Oct-11 18:01N 37°55' W 122°25'0 0.4
2017-Oct-11 17:30N 37°55' W 122°25'0 0.2
2017-Oct-11 16:59N 37°55' W 122°25'0 0.0
2017-Oct-11 00:00N 37°55' W 122°25'0 0.0
2017-Oct-10 23:30N 37°55' W 122°25'0 1.0
2017-Oct-10 23:00N 37°56' W 122°25'0 0.5
2017-Oct-10 22:30N 37°55' W 122°25'3 6.4
2017-Oct-10 22:00N 37°52' W 122°25'4 7.3
2017-Oct-10 21:30N 37°50' W 122°28'3 5.3
2017-Oct-10 21:01N 37°48' W 122°30'2 3.8
2017-Oct-10 20:30N 37°49' W 122°29'4 8.1
2017-Oct-10 20:00N 37°50' W 122°24'2 4.2
2017-Oct-10 19:30N 37°49' W 122°22'0 0.0
2017-Oct-10 19:00N 37°49' W 122°22'0 0.0
2017-Oct-10 18:30N 37°49' W 122°22'0 0.0
2017-Oct-10 18:00N 37°49' W 122°22'2 4.4
2017-Oct-10 17:30N 37°47' W 122°23'0 0.7
2017-Oct-10 17:00N 37°47' W 122°23'0 0.3
2017-Oct-10 16:30N 37°47' W 122°23'0 0.0
2017-Oct-10 16:00N 37°47' W 122°23'0 0.0
2017-Oct-10 15:30N 37°47' W 122°23'0 0.0
2017-Oct-10 15:00N 37°47' W 122°23'7 7.0
2017-Oct-10 14:00N 37°54' W 122°25'3 5.5
2017-Oct-10 13:30N 37°55' W 122°22'0 0.1
2017-Oct-10 13:00N 37°55' W 122°22'1 2.5
2017-Oct-10 12:30N 37°54' W 122°23'2 3.7
2017-Oct-10 12:00N 37°55' W 122°25'1 1.7
2017-Oct-10 11:30N 37°54' W 122°26'2 2.9
2017-Oct-10 10:59N 37°55' W 122°25'0 0.0
2017-Oct-10 10:29N 37°55' W 122°25'0 0.0
2017-Oct-10 09:59N 37°55' W 122°25'0 0.0
2017-Oct-10 09:29N 37°55' W 122°25'0 0.0
2017-Oct-10 08:59N 37°55' W 122°25'0 0.0
2017-Oct-10 08:29N 37°55' W 122°25'0 0.0
2017-Oct-10 07:59N 37°55' W 122°25'0 0.0
2017-Oct-10 07:29N 37°55' W 122°25'0 0.0
2017-Oct-10 06:59N 37°55' W 122°25'0 0.0
2017-Oct-10 06:29N 37°55' W 122°25'0 0.0
2017-Oct-10 05:59N 37°55' W 122°25'0 0.0
2017-Oct-10 05:29N 37°55' W 122°25'0 0.0
2017-Oct-10 04:59N 37°55' W 122°25'0 0.0
2017-Oct-10 04:29N 37°55' W 122°25'0 0.0
2017-Oct-10 03:59N 37°55' W 122°25'0 0.0
2017-Oct-10 03:29N 37°55' W 122°25'0 0.0
2017-Oct-10 02:59N 37°55' W 122°25'0 0.0
2017-Oct-10 02:26N 37°55' W 122°25'0 0.0
2017-Oct-10 01:59N 37°55' W 122°25'0 0.0
2017-Oct-10 01:29N 37°55' W 122°25'0 0.0
2017-Oct-10 00:56N 37°55' W 122°25'0 0.0
2017-Oct-10 00:29N 37°55' W 122°25'0 0.0
2017-Oct-09 23:59N 37°55' W 122°25'0 0.4
2017-Oct-09 23:30N 37°55' W 122°25'2 4.4
2017-Oct-09 23:01N 37°55' W 122°22'0 0.0
2017-Oct-09 22:31N 37°55' W 122°22'0 0.0
2017-Oct-09 22:01N 37°55' W 122°22'0 0.0
2017-Oct-09 21:31N 37°55' W 122°22'0 0.0
2017-Oct-09 21:01N 37°55' W 122°22'0 0.0
2017-Oct-09 20:30N 37°55' W 122°22'0 0.0
2017-Oct-09 20:00N 37°55' W 122°22'0 0.0
2017-Oct-09 19:31N 37°55' W 122°22'1 1.0
2017-Oct-09 19:00N 37°54' W 122°22'0 0.9
2017-Oct-09 18:30N 37°54' W 122°22'0 0.0
2017-Oct-09 18:00N 37°54' W 122°22'1 1.7
2017-Oct-09 17:30N 37°54' W 122°23'2 3.3
2017-Oct-09 17:00N 37°56' W 122°25'2 4.6
2017-Oct-09 16:30N 37°54' W 122°22'1 1.9
2017-Oct-09 16:00N 37°55' W 122°22'0 0.8
2017-Oct-09 15:30N 37°55' W 122°22'1 1.3
2017-Oct-09 14:59N 37°54' W 122°22'0 0.0
2017-Oct-09 14:29N 37°54' W 122°22'0 0.0
2017-Oct-09 13:59N 37°54' W 122°22'0 0.0
2017-Oct-09 13:29N 37°54' W 122°22'0 0.0
2017-Oct-09 12:56N 37°54' W 122°22'0 0.0
2017-Oct-09 12:29N 37°54' W 122°22'0 0.0
2017-Oct-09 11:59N 37°54' W 122°22'2 4.3
2017-Oct-09 11:31N 37°54' W 122°25'5 9.8
2017-Oct-09 11:00N 37°50' W 122°22'4 7.1
2017-Oct-09 10:31N 37°48' W 122°19'0 0.0
2017-Oct-09 10:00N 37°48' W 122°19'0 0.1
2017-Oct-09 09:30N 37°48' W 122°19'3 6.7
2017-Oct-09 09:00N 37°50' W 122°22'5 9.2
2017-Oct-09 08:30N 37°54' W 122°25'1 2.6
2017-Oct-09 07:58N 37°55' W 122°25'0 0.0
2017-Oct-09 07:28N 37°55' W 122°25'0 0.0
2017-Oct-09 06:58N 37°55' W 122°25'0 0.0
2017-Oct-09 06:19N 37°55' W 122°25'0 0.0
2017-Oct-09 05:55N 37°55' W 122°25'0 0.0
2017-Oct-09 05:28N 37°55' W 122°25'0 0.0
2017-Oct-09 04:58N 37°55' W 122°25'0 0.0
2017-Oct-09 04:28N 37°55' W 122°25'0 0.0
2017-Oct-09 03:58N 37°55' W 122°25'0 0.0
2017-Oct-09 03:28N 37°55' W 122°25'1 3.0
2017-Oct-09 03:00N 37°54' W 122°25'611.2
2017-Oct-09 02:30N 37°49' W 122°23'3 6.4
2017-Oct-09 02:00N 37°48' W 122°19'0 0.8
2017-Oct-09 01:30N 37°48' W 122°18'1 1.8
2017-Oct-09 01:01N 37°48' W 122°17'2 3.2
2017-Oct-09 00:30N 37°48' W 122°19'2 3.6
2017-Oct-09 00:00N 37°47' W 122°21'0 0.6
2017-Oct-08 23:30N 37°47' W 122°21'0 0.5
2017-Oct-08 23:00N 37°47' W 122°22'3 6.5
2017-Oct-08 22:30N 37°50' W 122°24'5 9.9
2017-Oct-08 22:00N 37°55' W 122°25'5 9.1
2017-Oct-08 21:30N 37°59' W 122°25'5 8.9
2017-Oct-08 20:59N 38°02' W 122°21'4 6.1
2017-Oct-08 20:20N 38°03' W 122°16'0 0.0
2017-Oct-08 19:54N 38°03' W 122°16'0 0.9
2017-Oct-08 19:29N 38°04' W 122°16'4 7.7
2017-Oct-08 19:00N 38°03' W 122°21'611.5
2017-Oct-08 18:30N 37°59' W 122°26'510.6
2017-Oct-08 18:00N 37°53' W 122°26'3 6.3
2017-Oct-08 17:30N 37°50' W 122°27'4 7.2
2017-Oct-08 17:00N 37°48' W 122°30'0 0.4
2017-Oct-08 16:30N 37°48' W 122°30'1 1.3
2017-Oct-08 16:00N 37°48' W 122°30'4 7.2
2017-Oct-08 15:30N 37°51' W 122°27'5 9.1
2017-Oct-08 15:00N 37°55' W 122°25'0 0.0
2017-Oct-08 14:30N 37°55' W 122°25'0 0.0
2017-Oct-08 14:00N 37°55' W 122°25'0 0.3
2017-Oct-08 13:30N 37°55' W 122°25'0 0.0
2017-Oct-08 13:00N 37°55' W 122°25'1 1.1
2017-Oct-08 12:30N 37°55' W 122°25'2 4.5
2017-Oct-08 12:00N 37°53' W 122°25'2 4.5
2017-Oct-08 11:30N 37°55' W 122°25'0 0.4
2017-Oct-08 10:59N 37°55' W 122°25'0 0.0
2017-Oct-08 10:29N 37°55' W 122°25'0 0.0
2017-Oct-08 09:56N 37°55' W 122°25'0 0.8
2017-Oct-08 09:30N 37°56' W 122°25'0 0.0
2017-Oct-08 09:00N 37°56' W 122°25'0 0.5
2017-Oct-08 08:30N 37°55' W 122°25'2 4.2
2017-Oct-08 08:01N 37°53' W 122°25'3 5.9
2017-Oct-08 07:30N 37°51' W 122°26'4 7.6
2017-Oct-08 07:01N 37°48' W 122°30'0 0.4
2017-Oct-08 06:30N 37°48' W 122°30'2 3.1
2017-Oct-08 06:00N 37°49' W 122°29'4 7.4
2017-Oct-08 05:30N 37°53' W 122°26'4 7.2
2017-Oct-08 05:00N 37°54' W 122°22'0 0.0
2017-Oct-08 04:30N 37°54' W 122°22'0 0.0
2017-Oct-08 04:00N 37°54' W 122°22'0 0.0
2017-Oct-08 03:30N 37°54' W 122°22'0 0.0
2017-Oct-08 03:00N 37°54' W 122°22'0 0.0
2017-Oct-08 02:30N 37°54' W 122°22'0 0.0
2017-Oct-08 02:00N 37°54' W 122°22'0 0.0
2017-Oct-08 01:30N 37°54' W 122°22'  

Dump ship's entire track history